sensor_id;sensor_type;location;lat;lon;timestamp;pressure;altitude;pressure_sealevel;temperature;humidity
68634;BME280;55625;47.072;22.192;2023-05-03T00:01:00;99968.47;;;14.88;52.58
68634;BME280;55625;47.072;22.192;2023-05-03T00:03:29;99971.66;;;14.81;53.07
68634;BME280;55625;47.072;22.192;2023-05-03T00:05:55;99975.16;;;14.76;53.39
68634;BME280;55625;47.072;22.192;2023-05-03T00:08:21;99966.88;;;14.69;54.99
68634;BME280;55625;47.072;22.192;2023-05-03T00:10:47;99970.38;;;14.55;56.06
68634;BME280;55625;47.072;22.192;2023-05-03T00:13:13;99964.44;;;14.31;59.27
68634;BME280;55625;47.072;22.192;2023-05-03T00:15:39;99971.06;;;14.10;61.28
68634;BME280;55625;47.072;22.192;2023-05-03T00:18:05;99960.25;;;13.95;62.39
68634;BME280;55625;47.072;22.192;2023-05-03T00:20:31;99962.44;;;13.91;63.43
68634;BME280;55625;47.072;22.192;2023-05-03T00:22:57;99962.56;;;13.79;63.28
68634;BME280;55625;47.072;22.192;2023-05-03T00:25:23;99960.78;;;13.72;62.38
68634;BME280;55625;47.072;22.192;2023-05-03T00:27:49;99953.50;;;13.71;63.17
68634;BME280;55625;47.072;22.192;2023-05-03T00:30:15;99952.84;;;13.67;62.44
68634;BME280;55625;47.072;22.192;2023-05-03T00:32:43;99948.22;;;13.60;62.25
68634;BME280;55625;47.072;22.192;2023-05-03T00:35:09;99954.09;;;13.57;62.66
68634;BME280;55625;47.072;22.192;2023-05-03T00:37:35;99956.28;;;13.53;63.63
68634;BME280;55625;47.072;22.192;2023-05-03T00:40:01;99960.66;;;13.45;65.27
68634;BME280;55625;47.072;22.192;2023-05-03T00:42:29;99960.41;;;13.52;65.14
68634;BME280;55625;47.072;22.192;2023-05-03T00:44:55;99958.44;;;13.40;65.44
68634;BME280;55625;47.072;22.192;2023-05-03T00:47:21;99957.13;;;13.31;64.78
68634;BME280;55625;47.072;22.192;2023-05-03T00:49:47;99960.72;;;13.23;63.49
68634;BME280;55625;47.072;22.192;2023-05-03T00:52:13;99962.31;;;13.24;63.17
68634;BME280;55625;47.072;22.192;2023-05-03T00:54:39;99966.28;;;13.26;62.22
68634;BME280;55625;47.072;22.192;2023-05-03T00:57:05;99965.03;;;13.27;61.31
68634;BME280;55625;47.072;22.192;2023-05-03T00:59:31;99960.72;;;13.23;60.36
68634;BME280;55625;47.072;22.192;2023-05-03T01:01:59;99970.69;;;13.18;60.93
68634;BME280;55625;47.072;22.192;2023-05-03T01:04:25;99966.47;;;13.10;60.91
68634;BME280;55625;47.072;22.192;2023-05-03T01:07:44;99965.34;;;13.07;61.47
68634;BME280;55625;47.072;22.192;2023-05-03T01:18:15;99965.13;;;12.80;63.55
68634;BME280;55625;47.072;22.192;2023-05-03T01:20:47;99968.78;;;12.81;64.66
68634;BME280;55625;47.072;22.192;2023-05-03T01:26:23;99972.50;;;12.68;64.99
68634;BME280;55625;47.072;22.192;2023-05-03T01:28:49;99964.88;;;12.65;64.03
68634;BME280;55625;47.072;22.192;2023-05-03T01:31:25;99966.28;;;12.61;64.19
68634;BME280;55625;47.072;22.192;2023-05-03T01:36:34;99969.59;;;12.59;62.97
68634;BME280;55625;47.072;22.192;2023-05-03T01:39:09;99972.09;;;12.57;64.08
68634;BME280;55625;47.072;22.192;2023-05-03T01:41:39;99973.34;;;12.56;63.80
68634;BME280;55625;47.072;22.192;2023-05-03T01:44:06;99965.72;;;12.53;64.84
68634;BME280;55625;47.072;22.192;2023-05-03T01:46:33;99966.50;;;12.54;66.02
68634;BME280;55625;47.072;22.192;2023-05-03T01:48:59;99967.44;;;12.51;65.67
68634;BME280;55625;47.072;22.192;2023-05-03T01:51:25;99970.41;;;12.47;65.63
68634;BME280;55625;47.072;22.192;2023-05-03T01:53:52;99972.31;;;12.50;65.36
68634;BME280;55625;47.072;22.192;2023-05-03T01:56:17;99972.47;;;12.47;65.50
68634;BME280;55625;47.072;22.192;2023-05-03T01:58:43;99964.72;;;12.47;65.79
68634;BME280;55625;47.072;22.192;2023-05-03T02:01:09;99978.28;;;12.43;66.43
68634;BME280;55625;47.072;22.192;2023-05-03T02:03:35;99969.59;;;12.47;65.38
68634;BME280;55625;47.072;22.192;2023-05-03T02:06:01;99971.78;;;12.42;66.31
68634;BME280;55625;47.072;22.192;2023-05-03T02:08:26;99966.81;;;12.34;66.95
68634;BME280;55625;47.072;22.192;2023-05-03T02:10:52;99974.91;;;12.35;66.64
68634;BME280;55625;47.072;22.192;2023-05-03T02:13:18;99973.44;;;12.31;66.82
68634;BME280;55625;47.072;22.192;2023-05-03T02:15:44;99978.13;;;12.25;66.67
68634;BME280;55625;47.072;22.192;2023-05-03T02:18:10;99987.88;;;12.24;67.42
68634;BME280;55625;47.072;22.192;2023-05-03T02:20:35;99976.28;;;12.18;68.73
68634;BME280;55625;47.072;22.192;2023-05-03T02:23:03;99970.25;;;12.16;68.99
68634;BME280;55625;47.072;22.192;2023-05-03T02:25:29;99980.50;;;12.13;68.69
68634;BME280;55625;47.072;22.192;2023-05-03T02:27:55;99975.28;;;12.12;69.01
68634;BME280;55625;47.072;22.192;2023-05-03T02:30:21;99984.63;;;12.12;68.06
68634;BME280;55625;47.072;22.192;2023-05-03T02:32:47;99986.66;;;12.12;67.60
68634;BME280;55625;47.072;22.192;2023-05-03T02:35:12;99981.44;;;12.10;68.07
68634;BME280;55625;47.072;22.192;2023-05-03T02:37:38;99985.88;;;12.11;68.05
68634;BME280;55625;47.072;22.192;2023-05-03T02:40:05;99986.88;;;12.18;67.46
68634;BME280;55625;47.072;22.192;2023-05-03T02:42:31;99982.69;;;12.09;68.30
68634;BME280;55625;47.072;22.192;2023-05-03T02:44:57;99983.59;;;12.06;67.55
68634;BME280;55625;47.072;22.192;2023-05-03T02:47:23;99983.72;;;12.03;67.80
68634;BME280;55625;47.072;22.192;2023-05-03T02:49:49;99995.44;;;12.05;67.54
68634;BME280;55625;47.072;22.192;2023-05-03T02:52:14;99991.00;;;12.04;66.58
68634;BME280;55625;47.072;22.192;2023-05-03T02:54:40;99988.16;;;12.04;66.90
68634;BME280;55625;47.072;22.192;2023-05-03T02:57:06;99997.75;;;11.97;67.55
68634;BME280;55625;47.072;22.192;2023-05-03T02:59:32;99995.22;;;11.99;67.86
68634;BME280;55625;47.072;22.192;2023-05-03T03:01:58;99995.22;;;11.99;68.01
68634;BME280;55625;47.072;22.192;2023-05-03T03:04:24;99988.63;;;12.02;68.02
68634;BME280;55625;47.072;22.192;2023-05-03T03:06:50;99997.28;;;11.99;67.56
68634;BME280;55625;47.072;22.192;2023-05-03T03:09:18;100001.84;;;11.96;68.08
68634;BME280;55625;47.072;22.192;2023-05-03T03:11:44;99998.75;;;11.91;68.87
68634;BME280;55625;47.072;22.192;2023-05-03T03:14:10;100000.13;;;11.86;68.47
68634;BME280;55625;47.072;22.192;2023-05-03T03:16:36;100004.56;;;11.87;67.49
68634;BME280;55625;47.072;22.192;2023-05-03T03:19:02;99996.69;;;11.91;67.11
68634;BME280;55625;47.072;22.192;2023-05-03T03:21:28;100003.63;;;11.77;68.00
68634;BME280;55625;47.072;22.192;2023-05-03T03:23:55;100007.59;;;11.67;68.42
68634;BME280;55625;47.072;22.192;2023-05-03T03:26:21;100008.94;;;11.63;67.82
68634;BME280;55625;47.072;22.192;2023-05-03T03:28:47;100016.00;;;11.58;69.13
68634;BME280;55625;47.072;22.192;2023-05-03T03:31:12;100013.28;;;11.67;69.08
68634;BME280;55625;47.072;22.192;2023-05-03T03:33:38;100019.19;;;11.60;69.81
68634;BME280;55625;47.072;22.192;2023-05-03T03:36:04;100017.03;;;11.51;70.24
68634;BME280;55625;47.072;22.192;2023-05-03T03:38:32;100021.34;;;11.43;71.21
68634;BME280;55625;47.072;22.192;2023-05-03T03:40:58;100026.53;;;11.32;72.55
68634;BME280;55625;47.072;22.192;2023-05-03T03:43:24;100031.34;;;11.35;71.93
68634;BME280;55625;47.072;22.192;2023-05-03T03:45:50;100034.53;;;11.37;72.15
68634;BME280;55625;47.072;22.192;2023-05-03T03:48:15;100042.44;;;11.30;71.75
68634;BME280;55625;47.072;22.192;2023-05-03T03:50:42;100041.28;;;11.27;71.37
68634;BME280;55625;47.072;22.192;2023-05-03T03:53:08;100046.63;;;11.25;71.08
68634;BME280;55625;47.072;22.192;2023-05-03T03:55:35;100044.94;;;11.28;71.96
68634;BME280;55625;47.072;22.192;2023-05-03T03:58:01;100045.53;;;11.35;70.35
68634;BME280;55625;47.072;22.192;2023-05-03T04:00:27;100048.38;;;11.35;70.11
68634;BME280;55625;47.072;22.192;2023-05-03T04:02:53;100047.81;;;11.40;70.46
68634;BME280;55625;47.072;22.192;2023-05-03T04:05:19;100056.34;;;11.40;70.12
68634;BME280;55625;47.072;22.192;2023-05-03T04:07:44;100044.75;;;11.47;69.18
68634;BME280;55625;47.072;22.192;2023-05-03T04:10:10;100047.25;;;11.58;70.34
68634;BME280;55625;47.072;22.192;2023-05-03T04:12:36;100052.66;;;11.69;69.03
68634;BME280;55625;47.072;22.192;2023-05-03T04:15:03;100050.97;;;11.84;68.61
68634;BME280;55625;47.072;22.192;2023-05-03T04:17:29;100049.72;;;11.98;67.82
68634;BME280;55625;47.072;22.192;2023-05-03T04:19:56;100062.00;;;12.07;67.14
68634;BME280;55625;47.072;22.192;2023-05-03T04:22:22;100066.88;;;12.20;66.86
68634;BME280;55625;47.072;22.192;2023-05-03T04:24:48;100060.72;;;12.34;67.49
68634;BME280;55625;47.072;22.192;2023-05-03T04:27:14;100065.00;;;12.51;66.63
68634;BME280;55625;47.072;22.192;2023-05-03T04:29:42;100067.06;;;12.63;66.57
68634;BME280;55625;47.072;22.192;2023-05-03T04:32:09;100060.19;;;12.73;66.58
68634;BME280;55625;47.072;22.192;2023-05-03T04:34:35;100065.63;;;12.81;65.68
68634;BME280;55625;47.072;22.192;2023-05-03T04:37:02;100064.69;;;12.84;64.75
68634;BME280;55625;47.072;22.192;2023-05-03T04:39:29;100063.09;;;12.83;63.61
68634;BME280;55625;47.072;22.192;2023-05-03T04:41:57;100072.91;;;12.82;62.28
68634;BME280;55625;47.072;22.192;2023-05-03T04:44:23;100078.84;;;12.74;62.85
68634;BME280;55625;47.072;22.192;2023-05-03T04:46:50;100066.81;;;12.70;63.80
68634;BME280;55625;47.072;22.192;2023-05-03T04:49:16;100074.09;;;12.71;63.71
68634;BME280;55625;47.072;22.192;2023-05-03T04:51:42;100077.66;;;12.63;63.83
68634;BME280;55625;47.072;22.192;2023-05-03T04:54:08;100080.16;;;12.61;66.12
68634;BME280;55625;47.072;22.192;2023-05-03T04:56:34;100080.56;;;12.72;63.98
68634;BME280;55625;47.072;22.192;2023-05-03T04:59:00;100075.75;;;12.82;63.17
68634;BME280;55625;47.072;22.192;2023-05-03T05:01:26;100079.38;;;12.95;62.41
68634;BME280;55625;47.072;22.192;2023-05-03T05:03:53;100071.88;;;13.10;62.30
68634;BME280;55625;47.072;22.192;2023-05-03T05:06:19;100076.50;;;13.29;61.53
68634;BME280;55625;47.072;22.192;2023-05-03T05:08:45;100067.75;;;13.46;61.72
68634;BME280;55625;47.072;22.192;2023-05-03T05:11:12;100080.88;;;13.65;61.20
68634;BME280;55625;47.072;22.192;2023-05-03T05:13:39;100071.63;;;13.83;60.99
68634;BME280;55625;47.072;22.192;2023-05-03T05:16:05;100082.97;;;14.05;59.70
68634;BME280;55625;47.072;22.192;2023-05-03T05:18:31;100067.53;;;14.24;59.79
68634;BME280;55625;47.072;22.192;2023-05-03T05:20:57;100068.81;;;14.32;58.87
68634;BME280;55625;47.072;22.192;2023-05-03T05:23:22;100065.78;;;14.36;59.55
68634;BME280;55625;47.072;22.192;2023-05-03T05:25:48;100060.28;;;14.41;58.80
68634;BME280;55625;47.072;22.192;2023-05-03T05:28:14;100071.75;;;14.50;60.56
68634;BME280;55625;47.072;22.192;2023-05-03T05:30:40;100066.38;;;14.52;59.50
68634;BME280;55625;47.072;22.192;2023-05-03T05:33:06;100065.91;;;14.63;59.60
68634;BME280;55625;47.072;22.192;2023-05-03T05:35:32;100071.31;;;14.70;59.65
68634;BME280;55625;47.072;22.192;2023-05-03T05:37:58;100081.50;;;14.80;59.82
68634;BME280;55625;47.072;22.192;2023-05-03T05:40:24;100078.97;;;14.82;59.88
68634;BME280;55625;47.072;22.192;2023-05-03T05:42:50;100079.44;;;14.90;60.64
68634;BME280;55625;47.072;22.192;2023-05-03T05:45:16;100074.34;;;14.94;61.30
68634;BME280;55625;47.072;22.192;2023-05-03T05:47:42;100081.50;;;14.99;61.45
68634;BME280;55625;47.072;22.192;2023-05-03T05:50:09;100082.94;;;15.03;61.38
68634;BME280;55625;47.072;22.192;2023-05-03T05:52:35;100087.72;;;15.06;62.26
68634;BME280;55625;47.072;22.192;2023-05-03T05:55:01;100087.09;;;15.02;62.75
68634;BME280;55625;47.072;22.192;2023-05-03T05:57:26;100087.22;;;15.26;62.71
68634;BME280;55625;47.072;22.192;2023-05-03T05:59:52;100090.56;;;15.61;63.28
68634;BME280;55625;47.072;22.192;2023-05-03T06:02:18;100076.53;;;15.81;61.17
68634;BME280;55625;47.072;22.192;2023-05-03T06:04:47;100089.03;;;16.02;60.31
68634;BME280;55625;47.072;22.192;2023-05-03T06:07:14;100086.47;;;16.04;58.36
68634;BME280;55625;47.072;22.192;2023-05-03T06:09:41;100087.53;;;16.16;58.29
68634;BME280;55625;47.072;22.192;2023-05-03T06:12:07;100090.69;;;16.27;57.06
68634;BME280;55625;47.072;22.192;2023-05-03T06:14:34;100091.25;;;16.40;55.74
68634;BME280;55625;47.072;22.192;2023-05-03T06:17:00;100091.50;;;16.52;55.04
68634;BME280;55625;47.072;22.192;2023-05-03T06:19:26;100088.69;;;16.75;54.75
68634;BME280;55625;47.072;22.192;2023-05-03T06:21:53;100081.38;;;16.98;54.56
68634;BME280;55625;47.072;22.192;2023-05-03T06:24:18;100090.63;;;17.17;52.92
68634;BME280;55625;47.072;22.192;2023-05-03T06:26:46;100084.53;;;17.39;53.01
68634;BME280;55625;47.072;22.192;2023-05-03T06:29:13;100084.75;;;17.65;52.43
68634;BME280;55625;47.072;22.192;2023-05-03T06:31:39;100076.38;;;17.91;51.16
68634;BME280;55625;47.072;22.192;2023-05-03T06:34:07;100078.25;;;18.09;50.87
68634;BME280;55625;47.072;22.192;2023-05-03T06:36:33;100077.06;;;18.15;50.05
68634;BME280;55625;47.072;22.192;2023-05-03T06:38:59;100078.72;;;18.22;50.88
68634;BME280;55625;47.072;22.192;2023-05-03T06:41:25;100081.88;;;18.39;49.94
68634;BME280;55625;47.072;22.192;2023-05-03T06:43:51;100079.91;;;18.65;47.73
68634;BME280;55625;47.072;22.192;2023-05-03T06:46:17;100083.41;;;18.89;49.89
68634;BME280;55625;47.072;22.192;2023-05-03T06:48:43;100079.97;;;19.06;49.19
68634;BME280;55625;47.072;22.192;2023-05-03T06:51:08;100075.91;;;19.18;50.12
68634;BME280;55625;47.072;22.192;2023-05-03T06:53:34;100072.16;;;19.32;50.33
68634;BME280;55625;47.072;22.192;2023-05-03T06:56:00;100075.50;;;19.51;49.41
68634;BME280;55625;47.072;22.192;2023-05-03T06:58:28;100079.38;;;19.68;49.18
68634;BME280;55625;47.072;22.192;2023-05-03T07:00:53;100065.25;;;19.96;47.73
68634;BME280;55625;47.072;22.192;2023-05-03T07:03:19;100071.66;;;20.11;46.50
68634;BME280;55625;47.072;22.192;2023-05-03T07:05:45;100073.66;;;20.31;46.95
68634;BME280;55625;47.072;22.192;2023-05-03T07:08:12;100067.00;;;20.51;43.51
68634;BME280;55625;47.072;22.192;2023-05-03T07:10:38;100069.31;;;20.47;43.18
68634;BME280;55625;47.072;22.192;2023-05-03T07:13:04;100068.88;;;20.54;42.99
68634;BME280;55625;47.072;22.192;2023-05-03T07:15:30;100071.22;;;20.56;43.49
68634;BME280;55625;47.072;22.192;2023-05-03T07:17:56;100064.25;;;20.73;39.73
68634;BME280;55625;47.072;22.192;2023-05-03T07:20:22;100066.31;;;20.67;39.62
68634;BME280;55625;47.072;22.192;2023-05-03T07:22:47;100063.66;;;20.58;38.84
68634;BME280;55625;47.072;22.192;2023-05-03T07:25:13;100061.56;;;20.64;38.08
68634;BME280;55625;47.072;22.192;2023-05-03T07:27:42;100060.53;;;20.67;37.19
68634;BME280;55625;47.072;22.192;2023-05-03T07:30:08;100061.63;;;20.75;38.90
68634;BME280;55625;47.072;22.192;2023-05-03T07:32:34;100060.94;;;20.92;39.26
68634;BME280;55625;47.072;22.192;2023-05-03T07:35:00;100059.16;;;21.11;39.10
68634;BME280;55625;47.072;22.192;2023-05-03T07:37:26;100059.22;;;21.17;38.67
68634;BME280;55625;47.072;22.192;2023-05-03T07:39:52;100055.84;;;21.29;37.78
68634;BME280;55625;47.072;22.192;2023-05-03T07:42:18;100055.41;;;21.48;38.71
68634;BME280;55625;47.072;22.192;2023-05-03T07:44:44;100047.53;;;21.70;39.42
68634;BME280;55625;47.072;22.192;2023-05-03T07:47:10;100049.41;;;22.01;38.59
68634;BME280;55625;47.072;22.192;2023-05-03T07:49:39;100046.53;;;22.18;37.00
68634;BME280;55625;47.072;22.192;2023-05-03T07:52:04;100044.16;;;22.28;35.95
68634;BME280;55625;47.072;22.192;2023-05-03T07:54:30;100046.25;;;22.33;35.95
68634;BME280;55625;47.072;22.192;2023-05-03T07:56:56;100035.72;;;22.52;36.23
68634;BME280;55625;47.072;22.192;2023-05-03T07:59:22;100041.44;;;22.75;35.72
68634;BME280;55625;47.072;22.192;2023-05-03T08:01:48;100039.84;;;22.85;36.06
68634;BME280;55625;47.072;22.192;2023-05-03T08:04:13;100042.69;;;23.02;36.15
68634;BME280;55625;47.072;22.192;2023-05-03T08:06:39;100042.34;;;23.16;36.24
68634;BME280;55625;47.072;22.192;2023-05-03T08:09:07;100045.47;;;23.24;35.42
68634;BME280;55625;47.072;22.192;2023-05-03T08:11:33;100050.66;;;23.42;35.22
68634;BME280;55625;47.072;22.192;2023-05-03T08:13:59;100045.50;;;23.71;34.48
68634;BME280;55625;47.072;22.192;2023-05-03T08:16:25;100050.88;;;23.91;34.75
68634;BME280;55625;47.072;22.192;2023-05-03T08:18:51;100047.75;;;24.19;34.26
68634;BME280;55625;47.072;22.192;2023-05-03T08:21:17;100047.69;;;24.25;29.70
68634;BME280;55625;47.072;22.192;2023-05-03T08:23:43;100053.41;;;24.06;30.39
68634;BME280;55625;47.072;22.192;2023-05-03T08:26:09;100050.94;;;23.80;31.58
68634;BME280;55625;47.072;22.192;2023-05-03T08:28:35;100055.84;;;23.61;31.89
68634;BME280;55625;47.072;22.192;2023-05-03T08:31:02;100053.66;;;23.72;33.13
68634;BME280;55625;47.072;22.192;2023-05-03T08:33:29;100057.78;;;23.88;33.31
68634;BME280;55625;47.072;22.192;2023-05-03T08:35:55;100062.44;;;23.97;33.31
68634;BME280;55625;47.072;22.192;2023-05-03T08:38:21;100062.44;;;23.97;31.12
68634;BME280;55625;47.072;22.192;2023-05-03T08:40:47;100058.94;;;24.04;29.67
68634;BME280;55625;47.072;22.192;2023-05-03T08:43:19;100060.66;;;24.18;30.51
68634;BME280;55625;47.072;22.192;2023-05-03T08:45:45;100052.72;;;24.24;30.10
68634;BME280;55625;47.072;22.192;2023-05-03T08:48:12;100057.84;;;24.42;30.63
68634;BME280;55625;47.072;22.192;2023-05-03T08:50:39;100055.56;;;24.60;32.70
68634;BME280;55625;47.072;22.192;2023-05-03T08:53:10;100054.94;;;24.91;33.72
68634;BME280;55625;47.072;22.192;2023-05-03T08:55:37;100057.84;;;24.91;31.85
68634;BME280;55625;47.072;22.192;2023-05-03T08:58:06;100063.72;;;25.10;32.41
68634;BME280;55625;47.072;22.192;2023-05-03T09:00:37;100059.06;;;25.45;33.42
68634;BME280;55625;47.072;22.192;2023-05-03T09:03:03;100064.56;;;25.67;32.68
68634;BME280;55625;47.072;22.192;2023-05-03T09:08:06;100063.63;;;25.78;31.22
68634;BME280;55625;47.072;22.192;2023-05-03T09:10:40;100055.59;;;25.84;30.78
68634;BME280;55625;47.072;22.192;2023-05-03T09:13:06;100060.53;;;25.89;31.95
68634;BME280;55625;47.072;22.192;2023-05-03T09:15:33;100053.03;;;25.93;32.53
68634;BME280;55625;47.072;22.192;2023-05-03T09:18:17;100053.38;;;25.90;32.11
68634;BME280;55625;47.072;22.192;2023-05-03T09:20:46;100054.94;;;25.91;31.95
68634;BME280;55625;47.072;22.192;2023-05-03T09:25:56;100057.00;;;25.58;30.89
68634;BME280;55625;47.072;22.192;2023-05-03T09:28:23;100052.38;;;25.68;31.85
68634;BME280;55625;47.072;22.192;2023-05-03T09:30:51;100058.19;;;25.68;30.99
68634;BME280;55625;47.072;22.192;2023-05-03T09:33:29;100050.53;;;25.65;31.03
68634;BME280;55625;47.072;22.192;2023-05-03T09:36:03;100047.88;;;25.67;31.16
68634;BME280;55625;47.072;22.192;2023-05-03T09:38:32;100050.00;;;25.86;30.75
68634;BME280;55625;47.072;22.192;2023-05-03T09:40:58;100051.19;;;25.58;32.29
68634;BME280;55625;47.072;22.192;2023-05-03T09:43:24;100048.84;;;25.76;30.04
68634;BME280;55625;47.072;22.192;2023-05-03T09:45:50;100049.81;;;25.97;31.33
68634;BME280;55625;47.072;22.192;2023-05-03T09:48:16;100043.94;;;26.03;30.19
68634;BME280;55625;47.072;22.192;2023-05-03T09:50:45;100049.88;;;26.10;29.86
68634;BME280;55625;47.072;22.192;2023-05-03T09:53:11;100047.84;;;26.05;29.87
68634;BME280;55625;47.072;22.192;2023-05-03T09:55:40;100052.44;;;25.82;28.91
68634;BME280;55625;47.072;22.192;2023-05-03T09:58:06;100041.69;;;24.96;29.63
68634;BME280;55625;47.072;22.192;2023-05-03T10:03:01;100039.09;;;24.92;31.21
68634;BME280;55625;47.072;22.192;2023-05-03T10:05:31;100040.41;;;25.16;31.18
68634;BME280;55625;47.072;22.192;2023-05-03T10:08:00;100039.41;;;25.13;30.72
68634;BME280;55625;47.072;22.192;2023-05-03T10:10:29;100042.78;;;25.36;30.92
68634;BME280;55625;47.072;22.192;2023-05-03T10:12:57;100042.72;;;25.42;34.18
68634;BME280;55625;47.072;22.192;2023-05-03T10:15:26;100040.41;;;25.34;34.29
68634;BME280;55625;47.072;22.192;2023-05-03T10:17:53;100045.47;;;25.72;32.80
68634;BME280;55625;47.072;22.192;2023-05-03T10:20:44;100047.88;;;25.67;33.93
68634;BME280;55625;47.072;22.192;2023-05-03T10:23:12;100043.78;;;25.20;33.29
68634;BME280;55625;47.072;22.192;2023-05-03T10:26:12;100044.34;;;24.94;30.89
68634;BME280;55625;47.072;22.192;2023-05-03T10:28:26;100038.75;;;25.39;32.35
68634;BME280;55625;47.072;22.192;2023-05-03T10:30:51;100033.66;;;25.64;31.67
68634;BME280;55625;47.072;22.192;2023-05-03T10:35:52;100028.09;;;25.47;32.73
68634;BME280;55625;47.072;22.192;2023-05-03T10:38:26;100034.38;;;25.51;34.14
68634;BME280;55625;47.072;22.192;2023-05-03T10:40:55;100033.91;;;24.85;34.13
68634;BME280;55625;47.072;22.192;2023-05-03T10:48:27;100038.91;;;25.84;32.54
68634;BME280;55625;47.072;22.192;2023-05-03T10:50:55;100033.59;;;25.69;32.27
68634;BME280;55625;47.072;22.192;2023-05-03T10:56:06;100031.06;;;25.79;32.71
68634;BME280;55625;47.072;22.192;2023-05-03T10:58:52;100028.78;;;25.53;33.34
68634;BME280;55625;47.072;22.192;2023-05-03T11:01:23;100026.03;;;25.61;32.27
68634;BME280;55625;47.072;22.192;2023-05-03T11:06:55;100021.00;;;25.80;32.52
68634;BME280;55625;47.072;22.192;2023-05-03T11:09:30;100017.97;;;26.05;33.76
68634;BME280;55625;47.072;22.192;2023-05-03T11:11:57;100021.69;;;26.31;32.67
68634;BME280;55625;47.072;22.192;2023-05-03T11:14:23;100017.50;;;26.46;33.33
68634;BME280;55625;47.072;22.192;2023-05-03T11:16:49;100021.53;;;26.56;33.35
68634;BME280;55625;47.072;22.192;2023-05-03T11:19:16;100019.47;;;26.24;32.92
68634;BME280;55625;47.072;22.192;2023-05-03T11:21:43;100016.53;;;25.60;32.65
68634;BME280;55625;47.072;22.192;2023-05-03T11:24:09;100011.81;;;25.57;33.04
68634;BME280;55625;47.072;22.192;2023-05-03T11:26:37;100015.50;;;25.39;34.22
68634;BME280;55625;47.072;22.192;2023-05-03T11:29:03;100006.72;;;25.26;34.78
68634;BME280;55625;47.072;22.192;2023-05-03T11:31:30;100015.59;;;25.15;35.33
68634;BME280;55625;47.072;22.192;2023-05-03T11:33:56;100009.06;;;25.08;34.51
68634;BME280;55625;47.072;22.192;2023-05-03T11:36:22;100013.19;;;25.19;34.92
68634;BME280;55625;47.072;22.192;2023-05-03T11:38:48;100010.19;;;25.43;32.88
68634;BME280;55625;47.072;22.192;2023-05-03T11:41:16;100007.06;;;25.22;33.78
68634;BME280;55625;47.072;22.192;2023-05-03T11:43:46;100006.00;;;25.38;34.60
68634;BME280;55625;47.072;22.192;2023-05-03T11:46:34;100006.47;;;25.05;34.10
68634;BME280;55625;47.072;22.192;2023-05-03T11:49:01;100009.22;;;25.35;35.04
68634;BME280;55625;47.072;22.192;2023-05-03T11:51:28;100010.47;;;25.58;34.99
68634;BME280;55625;47.072;22.192;2023-05-03T11:53:55;100016.31;;;25.77;34.82
68634;BME280;55625;47.072;22.192;2023-05-03T11:56:22;100005.78;;;25.74;33.69
68634;BME280;55625;47.072;22.192;2023-05-03T11:59:06;99999.91;;;25.93;34.04
68634;BME280;55625;47.072;22.192;2023-05-03T12:01:32;99997.00;;;25.93;33.23
68634;BME280;55625;47.072;22.192;2023-05-03T12:04:00;99987.34;;;25.85;31.92
68634;BME280;55625;47.072;22.192;2023-05-03T12:06:33;99991.94;;;25.80;33.11
68634;BME280;55625;47.072;22.192;2023-05-03T12:09:01;100002.00;;;25.79;32.74
68634;BME280;55625;47.072;22.192;2023-05-03T12:11:28;99986.69;;;25.92;32.87
68634;BME280;55625;47.072;22.192;2023-05-03T12:13:59;99989.59;;;25.79;32.69
68634;BME280;55625;47.072;22.192;2023-05-03T12:16:26;99984.69;;;26.00;32.02
68634;BME280;55625;47.072;22.192;2023-05-03T12:18:57;99986.25;;;25.88;32.29
68634;BME280;55625;47.072;22.192;2023-05-03T12:21:45;99990.69;;;25.38;33.49
68634;BME280;55625;47.072;22.192;2023-05-03T12:24:11;99989.66;;;25.54;33.53
68634;BME280;55625;47.072;22.192;2023-05-03T12:26:37;99998.63;;;25.56;33.89
68634;BME280;55625;47.072;22.192;2023-05-03T12:29:03;99984.53;;;25.60;33.60
68634;BME280;55625;47.072;22.192;2023-05-03T12:31:28;99985.84;;;25.46;34.49
68634;BME280;55625;47.072;22.192;2023-05-03T12:33:54;99984.88;;;25.38;33.94
68634;BME280;55625;47.072;22.192;2023-05-03T12:36:21;99976.03;;;24.68;34.05
68634;BME280;55625;47.072;22.192;2023-05-03T12:38:47;99972.47;;;24.81;34.22
68634;BME280;55625;47.072;22.192;2023-05-03T12:41:15;99974.97;;;24.90;33.67
68634;BME280;55625;47.072;22.192;2023-05-03T12:43:41;99966.72;;;24.94;35.21
68634;BME280;55625;47.072;22.192;2023-05-03T12:46:07;99968.97;;;24.39;34.42
68634;BME280;55625;47.072;22.192;2023-05-03T12:48:33;99958.75;;;24.57;36.61
68634;BME280;55625;47.072;22.192;2023-05-03T12:50:58;99964.94;;;24.91;35.27
68634;BME280;55625;47.072;22.192;2023-05-03T12:53:24;99955.94;;;25.14;35.22
68634;BME280;55625;47.072;22.192;2023-05-03T12:55:50;99949.03;;;25.17;32.81
68634;BME280;55625;47.072;22.192;2023-05-03T12:58:16;99949.63;;;24.91;33.43
68634;BME280;55625;47.072;22.192;2023-05-03T13:00:44;99947.13;;;25.19;36.04
68634;BME280;55625;47.072;22.192;2023-05-03T13:03:10;99940.59;;;25.32;34.30
68634;BME280;55625;47.072;22.192;2023-05-03T13:05:37;99938.56;;;25.27;34.86
68634;BME280;55625;47.072;22.192;2023-05-03T13:08:02;99937.47;;;24.92;33.68
68634;BME280;55625;47.072;22.192;2023-05-03T13:10:28;99928.19;;;24.94;33.55
68634;BME280;55625;47.072;22.192;2023-05-03T13:12:54;99927.84;;;24.78;33.71
68634;BME280;55625;47.072;22.192;2023-05-03T13:15:22;99924.06;;;24.46;33.39
68634;BME280;55625;47.072;22.192;2023-05-03T13:17:50;99926.06;;;24.32;34.37